sensor_id;sensor_type;location;lat;lon;timestamp;P1;durP1;ratioP1;P2;durP2;ratioP2
823;SDS011;373;49.342;8.146;2022-12-18T00:01:22;49.85;;;27.38;;
823;SDS011;373;49.342;8.146;2022-12-18T00:03:51;57.50;;;26.73;;
823;SDS011;373;49.342;8.146;2022-12-18T00:06:19;49.55;;;26.70;;
823;SDS011;373;49.342;8.146;2022-12-18T00:08:47;47.20;;;27.90;;
823;SDS011;373;49.342;8.146;2022-12-18T00:11:18;48.65;;;28.05;;
823;SDS011;373;49.342;8.146;2022-12-18T00:13:46;49.92;;;26.42;;
823;SDS011;373;49.342;8.146;2022-12-18T00:16:16;48.55;;;28.23;;
823;SDS011;373;49.342;8.146;2022-12-18T00:18:46;54.33;;;28.20;;
823;SDS011;373;49.342;8.146;2022-12-18T00:21:14;50.30;;;27.35;;
823;SDS011;373;49.342;8.146;2022-12-18T00:23:44;47.28;;;27.23;;
823;SDS011;373;49.342;8.146;2022-12-18T00:26:14;42.90;;;26.77;;
823;SDS011;373;49.342;8.146;2022-12-18T00:28:45;50.80;;;26.83;;
823;SDS011;373;49.342;8.146;2022-12-18T00:31:14;55.65;;;27.95;;
823;SDS011;373;49.342;8.146;2022-12-18T00:33:43;47.88;;;27.10;;
823;SDS011;373;49.342;8.146;2022-12-18T00:36:14;45.60;;;26.95;;
823;SDS011;373;49.342;8.146;2022-12-18T00:38:44;47.60;;;28.05;;
823;SDS011;373;49.342;8.146;2022-12-18T00:41:17;49.13;;;27.30;;
823;SDS011;373;49.342;8.146;2022-12-18T00:44:00;49.45;;;26.85;;
823;SDS011;373;49.342;8.146;2022-12-18T00:46:27;50.67;;;27.27;;
823;SDS011;373;49.342;8.146;2022-12-18T00:48:54;47.90;;;27.20;;
823;SDS011;373;49.342;8.146;2022-12-18T00:51:21;51.53;;;27.77;;
823;SDS011;373;49.342;8.146;2022-12-18T00:53:49;52.95;;;28.20;;
823;SDS011;373;49.342;8.146;2022-12-18T00:56:16;42.30;;;25.77;;
823;SDS011;373;49.342;8.146;2022-12-18T00:58:43;45.75;;;25.08;;
823;SDS011;373;49.342;8.146;2022-12-18T01:01:13;49.13;;;27.33;;
823;SDS011;373;49.342;8.146;2022-12-18T01:03:40;43.40;;;26.00;;
823;SDS011;373;49.342;8.146;2022-12-18T01:06:09;42.53;;;25.10;;
823;SDS011;373;49.342;8.146;2022-12-18T01:08:38;49.35;;;27.50;;
823;SDS011;373;49.342;8.146;2022-12-18T01:11:06;42.92;;;25.17;;
823;SDS011;373;49.342;8.146;2022-12-18T01:13:34;45.55;;;26.30;;
823;SDS011;373;49.342;8.146;2022-12-18T01:16:02;50.72;;;27.17;;
823;SDS011;373;49.342;8.146;2022-12-18T01:18:30;39.85;;;25.70;;
823;SDS011;373;49.342;8.146;2022-12-18T01:20:58;39.72;;;24.38;;
823;SDS011;373;49.342;8.146;2022-12-18T01:23:25;42.05;;;25.27;;
823;SDS011;373;49.342;8.146;2022-12-18T01:25:52;43.22;;;24.98;;
823;SDS011;373;49.342;8.146;2022-12-18T01:28:20;41.10;;;25.15;;
823;SDS011;373;49.342;8.146;2022-12-18T01:30:47;43.60;;;26.05;;
823;SDS011;373;49.342;8.146;2022-12-18T01:33:15;38.75;;;23.48;;
823;SDS011;373;49.342;8.146;2022-12-18T01:35:43;43.38;;;25.63;;
823;SDS011;373;49.342;8.146;2022-12-18T01:38:14;42.80;;;25.58;;
823;SDS011;373;49.342;8.146;2022-12-18T01:40:41;42.40;;;23.92;;
823;SDS011;373;49.342;8.146;2022-12-18T01:43:09;40.97;;;24.85;;
823;SDS011;373;49.342;8.146;2022-12-18T01:45:36;37.83;;;22.77;;
823;SDS011;373;49.342;8.146;2022-12-18T01:48:04;39.20;;;24.00;;
823;SDS011;373;49.342;8.146;2022-12-18T01:50:36;42.05;;;23.98;;
823;SDS011;373;49.342;8.146;2022-12-18T01:53:09;45.72;;;26.08;;
823;SDS011;373;49.342;8.146;2022-12-18T01:55:39;43.22;;;24.35;;
823;SDS011;373;49.342;8.146;2022-12-18T01:58:18;41.78;;;24.25;;
823;SDS011;373;49.342;8.146;2022-12-18T02:00:46;43.42;;;24.67;;
823;SDS011;373;49.342;8.146;2022-12-18T02:03:14;39.47;;;24.55;;
823;SDS011;373;49.342;8.146;2022-12-18T02:05:43;40.33;;;22.70;;
823;SDS011;373;49.342;8.146;2022-12-18T02:08:18;46.10;;;26.33;;
823;SDS011;373;49.342;8.146;2022-12-18T02:10:53;37.70;;;23.90;;
823;SDS011;373;49.342;8.146;2022-12-18T02:13:27;41.75;;;25.00;;
823;SDS011;373;49.342;8.146;2022-12-18T02:16:02;42.65;;;25.13;;
823;SDS011;373;49.342;8.146;2022-12-18T02:18:40;41.25;;;25.00;;
823;SDS011;373;49.342;8.146;2022-12-18T02:21:12;44.70;;;25.38;;
823;SDS011;373;49.342;8.146;2022-12-18T02:23:49;40.88;;;24.40;;
823;SDS011;373;49.342;8.146;2022-12-18T02:26:31;37.10;;;22.77;;
823;SDS011;373;49.342;8.146;2022-12-18T02:29:04;38.83;;;22.42;;
823;SDS011;373;49.342;8.146;2022-12-18T02:31:42;44.92;;;24.25;;
823;SDS011;373;49.342;8.146;2022-12-18T02:34:13;36.65;;;23.60;;
823;SDS011;373;49.342;8.146;2022-12-18T02:36:47;44.42;;;24.98;;
823;SDS011;373;49.342;8.146;2022-12-18T02:39:16;43.70;;;24.98;;
823;SDS011;373;49.342;8.146;2022-12-18T02:42:00;41.42;;;24.08;;
823;SDS011;373;49.342;8.146;2022-12-18T02:44:33;39.08;;;23.13;;
823;SDS011;373;49.342;8.146;2022-12-18T02:47:03;38.47;;;23.85;;
823;SDS011;373;49.342;8.146;2022-12-18T02:49:33;40.83;;;24.38;;
823;SDS011;373;49.342;8.146;2022-12-18T02:52:11;43.30;;;23.60;;
823;SDS011;373;49.342;8.146;2022-12-18T02:54:51;39.45;;;23.55;;
823;SDS011;373;49.342;8.146;2022-12-18T02:57:32;42.55;;;25.08;;
823;SDS011;373;49.342;8.146;2022-12-18T03:00:04;41.40;;;23.65;;
823;SDS011;373;49.342;8.146;2022-12-18T03:02:41;41.05;;;24.73;;
823;SDS011;373;49.342;8.146;2022-12-18T03:05:14;41.45;;;24.10;;
823;SDS011;373;49.342;8.146;2022-12-18T03:07:46;38.85;;;22.83;;
823;SDS011;373;49.342;8.146;2022-12-18T03:10:19;40.38;;;24.83;;
823;SDS011;373;49.342;8.146;2022-12-18T03:12:53;43.30;;;23.35;;
823;SDS011;373;49.342;8.146;2022-12-18T03:15:26;38.58;;;23.48;;
823;SDS011;373;49.342;8.146;2022-12-18T03:18:06;41.03;;;23.25;;
823;SDS011;373;49.342;8.146;2022-12-18T03:20:36;44.13;;;23.58;;
823;SDS011;373;49.342;8.146;2022-12-18T03:23:06;38.42;;;23.73;;
823;SDS011;373;49.342;8.146;2022-12-18T03:25:37;42.72;;;24.42;;
823;SDS011;373;49.342;8.146;2022-12-18T03:28:10;43.55;;;24.73;;
823;SDS011;373;49.342;8.146;2022-12-18T03:30:42;42.70;;;24.95;;
823;SDS011;373;49.342;8.146;2022-12-18T03:33:12;38.97;;;24.50;;
823;SDS011;373;49.342;8.146;2022-12-18T03:35:46;37.63;;;22.80;;
823;SDS011;373;49.342;8.146;2022-12-18T03:38:16;42.78;;;24.75;;
823;SDS011;373;49.342;8.146;2022-12-18T03:40:50;40.22;;;24.63;;
823;SDS011;373;49.342;8.146;2022-12-18T03:43:27;42.58;;;24.75;;
823;SDS011;373;49.342;8.146;2022-12-18T03:46:02;45.00;;;24.65;;
823;SDS011;373;49.342;8.146;2022-12-18T03:48:35;37.40;;;22.25;;
823;SDS011;373;49.342;8.146;2022-12-18T03:51:10;36.13;;;21.77;;
823;SDS011;373;49.342;8.146;2022-12-18T03:53:44;38.95;;;22.98;;
823;SDS011;373;49.342;8.146;2022-12-18T03:56:20;40.00;;;23.15;;
823;SDS011;373;49.342;8.146;2022-12-18T03:58:52;42.42;;;23.48;;
823;SDS011;373;49.342;8.146;2022-12-18T04:01:23;41.65;;;24.92;;
823;SDS011;373;49.342;8.146;2022-12-18T04:03:53;42.95;;;24.13;;
823;SDS011;373;49.342;8.146;2022-12-18T04:06:21;46.92;;;25.65;;
823;SDS011;373;49.342;8.146;2022-12-18T04:08:50;48.05;;;25.00;;
823;SDS011;373;49.342;8.146;2022-12-18T04:11:21;40.38;;;23.00;;
823;SDS011;373;49.342;8.146;2022-12-18T04:13:48;43.45;;;26.25;;
823;SDS011;373;49.342;8.146;2022-12-18T04:16:21;40.90;;;24.92;;
823;SDS011;373;49.342;8.146;2022-12-18T04:18:52;41.60;;;24.33;;
823;SDS011;373;49.342;8.146;2022-12-18T04:21:22;25.77;;;15.57;;
823;SDS011;373;49.342;8.146;2022-12-18T04:23:51;72.00;;;37.80;;
823;SDS011;373;49.342;8.146;2022-12-18T04:26:21;57.00;;;32.28;;
823;SDS011;373;49.342;8.146;2022-12-18T04:29:11;48.15;;;29.98;;
823;SDS011;373;49.342;8.146;2022-12-18T04:31:40;48.58;;;26.52;;
823;SDS011;373;49.342;8.146;2022-12-18T04:34:08;47.67;;;27.55;;
823;SDS011;373;49.342;8.146;2022-12-18T04:36:42;40.03;;;25.38;;
823;SDS011;373;49.342;8.146;2022-12-18T04:39:09;47.47;;;27.40;;
823;SDS011;373;49.342;8.146;2022-12-18T04:41:36;43.58;;;26.75;;
823;SDS011;373;49.342;8.146;2022-12-18T04:44:04;42.22;;;25.80;;
823;SDS011;373;49.342;8.146;2022-12-18T04:46:31;43.80;;;26.45;;
823;SDS011;373;49.342;8.146;2022-12-18T04:48:59;46.65;;;26.23;;
823;SDS011;373;49.342;8.146;2022-12-18T04:51:26;43.83;;;24.90;;
823;SDS011;373;49.342;8.146;2022-12-18T04:53:53;42.42;;;26.17;;
823;SDS011;373;49.342;8.146;2022-12-18T04:56:21;38.72;;;23.20;;
823;SDS011;373;49.342;8.146;2022-12-18T04:58:48;37.22;;;24.15;;
823;SDS011;373;49.342;8.146;2022-12-18T05:01:16;43.17;;;26.38;;
823;SDS011;373;49.342;8.146;2022-12-18T05:03:44;45.05;;;26.63;;
823;SDS011;373;49.342;8.146;2022-12-18T05:06:12;42.45;;;26.25;;
823;SDS011;373;49.342;8.146;2022-12-18T05:08:40;42.95;;;24.38;;
823;SDS011;373;49.342;8.146;2022-12-18T05:11:07;41.15;;;25.75;;
823;SDS011;373;49.342;8.146;2022-12-18T05:13:36;41.72;;;25.50;;
823;SDS011;373;49.342;8.146;2022-12-18T05:16:03;41.95;;;25.23;;
823;SDS011;373;49.342;8.146;2022-12-18T05:18:32;38.90;;;24.58;;
823;SDS011;373;49.342;8.146;2022-12-18T05:20:59;47.70;;;26.77;;
823;SDS011;373;49.342;8.146;2022-12-18T05:23:28;39.70;;;26.08;;
823;SDS011;373;49.342;8.146;2022-12-18T05:25:56;45.45;;;27.75;;
823;SDS011;373;49.342;8.146;2022-12-18T05:28:26;43.58;;;27.25;;
823;SDS011;373;49.342;8.146;2022-12-18T05:30:55;48.00;;;28.33;;
823;SDS011;373;49.342;8.146;2022-12-18T05:33:24;46.10;;;28.10;;
823;SDS011;373;49.342;8.146;2022-12-18T05:35:53;46.30;;;26.27;;
823;SDS011;373;49.342;8.146;2022-12-18T05:38:22;40.97;;;25.70;;
823;SDS011;373;49.342;8.146;2022-12-18T05:40:52;45.25;;;28.17;;
823;SDS011;373;49.342;8.146;2022-12-18T05:43:20;42.30;;;26.65;;
823;SDS011;373;49.342;8.146;2022-12-18T05:45:49;42.45;;;27.05;;
823;SDS011;373;49.342;8.146;2022-12-18T05:48:17;43.60;;;27.58;;
823;SDS011;373;49.342;8.146;2022-12-18T05:50:45;45.80;;;27.85;;
823;SDS011;373;49.342;8.146;2022-12-18T05:53:13;45.55;;;27.45;;
823;SDS011;373;49.342;8.146;2022-12-18T05:55:41;45.78;;;29.40;;
823;SDS011;373;49.342;8.146;2022-12-18T05:58:11;39.10;;;26.33;;
823;SDS011;373;49.342;8.146;2022-12-18T06:00:39;44.80;;;27.52;;
823;SDS011;373;49.342;8.146;2022-12-18T06:03:07;44.38;;;27.25;;
823;SDS011;373;49.342;8.146;2022-12-18T06:05:36;48.22;;;30.58;;
823;SDS011;373;49.342;8.146;2022-12-18T06:08:04;46.20;;;26.92;;
823;SDS011;373;49.342;8.146;2022-12-18T06:10:31;48.35;;;30.52;;
823;SDS011;373;49.342;8.146;2022-12-18T06:12:59;42.92;;;27.42;;
823;SDS011;373;49.342;8.146;2022-12-18T06:15:27;48.00;;;29.45;;
823;SDS011;373;49.342;8.146;2022-12-18T06:17:54;45.58;;;27.77;;
823;SDS011;373;49.342;8.146;2022-12-18T06:20:22;47.80;;;30.52;;
823;SDS011;373;49.342;8.146;2022-12-18T06:22:49;44.13;;;28.10;;
823;SDS011;373;49.342;8.146;2022-12-18T06:25:16;47.67;;;28.75;;
823;SDS011;373;49.342;8.146;2022-12-18T06:27:43;43.78;;;28.33;;
823;SDS011;373;49.342;8.146;2022-12-18T06:30:14;48.42;;;30.70;;
823;SDS011;373;49.342;8.146;2022-12-18T06:32:43;46.45;;;29.73;;
823;SDS011;373;49.342;8.146;2022-12-18T06:35:10;50.05;;;30.20;;
823;SDS011;373;49.342;8.146;2022-12-18T06:37:37;43.97;;;30.17;;
823;SDS011;373;49.342;8.146;2022-12-18T06:40:07;43.17;;;29.15;;
823;SDS011;373;49.342;8.146;2022-12-18T06:42:35;45.42;;;29.63;;
823;SDS011;373;49.342;8.146;2022-12-18T06:45:02;47.50;;;31.75;;
823;SDS011;373;49.342;8.146;2022-12-18T06:47:30;49.92;;;33.10;;
823;SDS011;373;49.342;8.146;2022-12-18T06:49:58;54.92;;;34.53;;
823;SDS011;373;49.342;8.146;2022-12-18T06:52:25;53.35;;;32.72;;
823;SDS011;373;49.342;8.146;2022-12-18T06:54:52;46.92;;;29.88;;
823;SDS011;373;49.342;8.146;2022-12-18T06:57:19;51.95;;;30.92;;
823;SDS011;373;49.342;8.146;2022-12-18T06:59:46;50.58;;;33.13;;
823;SDS011;373;49.342;8.146;2022-12-18T07:02:13;49.83;;;33.67;;
823;SDS011;373;49.342;8.146;2022-12-18T07:04:40;54.08;;;31.65;;
823;SDS011;373;49.342;8.146;2022-12-18T07:07:09;57.90;;;33.55;;
823;SDS011;373;49.342;8.146;2022-12-18T07:09:36;58.20;;;34.13;;
823;SDS011;373;49.342;8.146;2022-12-18T07:12:03;53.97;;;33.25;;
823;SDS011;373;49.342;8.146;2022-12-18T07:14:32;53.10;;;33.75;;
823;SDS011;373;49.342;8.146;2022-12-18T07:16:59;50.47;;;32.63;;
823;SDS011;373;49.342;8.146;2022-12-18T07:19:26;57.38;;;34.85;;
823;SDS011;373;49.342;8.146;2022-12-18T07:21:53;53.67;;;32.70;;
823;SDS011;373;49.342;8.146;2022-12-18T07:24:21;58.08;;;33.08;;
823;SDS011;373;49.342;8.146;2022-12-18T07:26:48;49.63;;;31.35;;
823;SDS011;373;49.342;8.146;2022-12-18T07:29:15;53.35;;;33.28;;
823;SDS011;373;49.342;8.146;2022-12-18T07:31:43;48.17;;;31.33;;
823;SDS011;373;49.342;8.146;2022-12-18T07:34:10;46.10;;;29.95;;
823;SDS011;373;49.342;8.146;2022-12-18T07:36:38;52.55;;;32.00;;
823;SDS011;373;49.342;8.146;2022-12-18T07:39:05;50.00;;;32.33;;
823;SDS011;373;49.342;8.146;2022-12-18T07:41:33;48.83;;;30.42;;
823;SDS011;373;49.342;8.146;2022-12-18T07:44:08;48.70;;;32.45;;
823;SDS011;373;49.342;8.146;2022-12-18T07:46:36;49.65;;;31.30;;
823;SDS011;373;49.342;8.146;2022-12-18T07:49:03;46.13;;;30.15;;
823;SDS011;373;49.342;8.146;2022-12-18T07:51:30;43.17;;;29.60;;
823;SDS011;373;49.342;8.146;2022-12-18T07:53:58;41.65;;;28.92;;
823;SDS011;373;49.342;8.146;2022-12-18T07:56:25;47.28;;;29.58;;
823;SDS011;373;49.342;8.146;2022-12-18T07:58:54;40.72;;;28.40;;
823;SDS011;373;49.342;8.146;2022-12-18T08:01:21;36.45;;;25.77;;
823;SDS011;373;49.342;8.146;2022-12-18T08:03:48;38.47;;;26.88;;
823;SDS011;373;49.342;8.146;2022-12-18T08:06:15;38.72;;;26.52;;
823;SDS011;373;49.342;8.146;2022-12-18T08:08:42;37.45;;;25.80;;
823;SDS011;373;49.342;8.146;2022-12-18T08:11:09;36.13;;;26.73;;
823;SDS011;373;49.342;8.146;2022-12-18T08:13:36;36.88;;;24.52;;
823;SDS011;373;49.342;8.146;2022-12-18T08:16:05;38.30;;;26.10;;
823;SDS011;373;49.342;8.146;2022-12-18T08:18:34;31.83;;;24.15;;
823;SDS011;373;49.342;8.146;2022-12-18T08:21:08;33.25;;;24.60;;
823;SDS011;373;49.342;8.146;2022-12-18T08:23:35;32.60;;;23.30;;
823;SDS011;373;49.342;8.146;2022-12-18T08:26:03;34.15;;;24.42;;
823;SDS011;373;49.342;8.146;2022-12-18T08:28:30;34.72;;;24.15;;
823;SDS011;373;49.342;8.146;2022-12-18T08:30:57;30.10;;;23.35;;
823;SDS011;373;49.342;8.146;2022-12-18T08:33:26;34.08;;;24.67;;
823;SDS011;373;49.342;8.146;2022-12-18T08:35:53;30.73;;;23.85;;
823;SDS011;373;49.342;8.146;2022-12-18T08:38:20;33.47;;;23.88;;
823;SDS011;373;49.342;8.146;2022-12-18T08:40:48;30.70;;;22.90;;
823;SDS011;373;49.342;8.146;2022-12-18T08:43:15;32.33;;;23.58;;
823;SDS011;373;49.342;8.146;2022-12-18T08:45:59;31.90;;;24.95;;
823;SDS011;373;49.342;8.146;2022-12-18T08:48:28;34.88;;;24.20;;
823;SDS011;373;49.342;8.146;2022-12-18T08:50:55;32.13;;;24.25;;
823;SDS011;373;49.342;8.146;2022-12-18T08:53:22;31.52;;;24.25;;
823;SDS011;373;49.342;8.146;2022-12-18T08:55:57;31.15;;;23.70;;
823;SDS011;373;49.342;8.146;2022-12-18T08:58:33;31.10;;;23.95;;
823;SDS011;373;49.342;8.146;2022-12-18T09:01:05;29.98;;;22.92;;
823;SDS011;373;49.342;8.146;2022-12-18T09:03:41;33.97;;;25.02;;
823;SDS011;373;49.342;8.146;2022-12-18T09:06:08;30.85;;;23.42;;
823;SDS011;373;49.342;8.146;2022-12-18T09:08:35;30.65;;;24.90;;
823;SDS011;373;49.342;8.146;2022-12-18T09:11:02;32.33;;;24.48;;
823;SDS011;373;49.342;8.146;2022-12-18T09:13:30;32.65;;;24.77;;
823;SDS011;373;49.342;8.146;2022-12-18T09:15:57;34.80;;;24.92;;
823;SDS011;373;49.342;8.146;2022-12-18T09:18:24;33.65;;;24.75;;
823;SDS011;373;49.342;8.146;2022-12-18T09:20:53;29.65;;;23.88;;
823;SDS011;373;49.342;8.146;2022-12-18T09:23:23;29.85;;;24.00;;
823;SDS011;373;49.342;8.146;2022-12-18T09:25:50;30.45;;;25.13;;
823;SDS011;373;49.342;8.146;2022-12-18T09:28:17;34.92;;;25.55;;
823;SDS011;373;49.342;8.146;2022-12-18T09:30:46;32.17;;;24.92;;
823;SDS011;373;49.342;8.146;2022-12-18T09:33:14;35.78;;;23.45;;
823;SDS011;373;49.342;8.146;2022-12-18T09:35:42;34.83;;;24.75;;
823;SDS011;373;49.342;8.146;2022-12-18T10:10:23;28.45;;;23.48;;
823;SDS011;373;49.342;8.146;2022-12-18T10:12:57;27.98;;;23.00;;
823;SDS011;373;49.342;8.146;2022-12-18T10:15:34;30.85;;;23.85;;
823;SDS011;373;49.342;8.146;2022-12-18T10:18:10;29.17;;;24.58;;
823;SDS011;373;49.342;8.146;2022-12-18T10:20:47;30.88;;;24.42;;
823;SDS011;373;49.342;8.146;2022-12-18T10:23:17;32.22;;;23.58;;
823;SDS011;373;49.342;8.146;2022-12-18T10:25:55;33.90;;;25.30;;
823;SDS011;373;49.342;8.146;2022-12-18T10:28:27;28.30;;;23.08;;
823;SDS011;373;49.342;8.146;2022-12-18T10:30:56;34.72;;;23.65;;
823;SDS011;373;49.342;8.146;2022-12-18T10:33:27;31.80;;;22.95;;
823;SDS011;373;49.342;8.146;2022-12-18T10:35:57;34.08;;;24.33;;
823;SDS011;373;49.342;8.146;2022-12-18T10:38:25;34.85;;;23.75;;
823;SDS011;373;49.342;8.146;2022-12-18T10:40:55;36.28;;;23.92;;
823;SDS011;373;49.342;8.146;2022-12-18T10:43:25;34.58;;;22.98;;
823;SDS011;373;49.342;8.146;2022-12-18T10:46:00;35.10;;;24.30;;
823;SDS011;373;49.342;8.146;2022-12-18T10:48:31;35.97;;;24.17;;
823;SDS011;373;49.342;8.146;2022-12-18T10:50:59;35.53;;;24.40;;
823;SDS011;373;49.342;8.146;2022-12-18T10:53:27;35.97;;;24.52;;
823;SDS011;373;49.342;8.146;2022-12-18T10:55:57;39.45;;;23.80;;
823;SDS011;373;49.342;8.146;2022-12-18T10:58:25;34.65;;;23.85;;
823;SDS011;373;49.342;8.146;2022-12-18T11:01:04;35.88;;;24.75;;
823;SDS011;373;49.342;8.146;2022-12-18T11:03:35;39.10;;;26.58;;
823;SDS011;373;49.342;8.146;2022-12-18T11:06:04;40.33;;;26.08;;
823;SDS011;373;49.342;8.146;2022-12-18T11:08:33;33.15;;;24.40;;
823;SDS011;373;49.342;8.146;2022-12-18T11:11:02;40.42;;;26.80;;
823;SDS011;373;49.342;8.146;2022-12-18T11:13:34;39.47;;;26.48;;
823;SDS011;373;49.342;8.146;2022-12-18T11:16:01;41.70;;;25.95;;
823;SDS011;373;49.342;8.146;2022-12-18T11:18:29;35.97;;;25.25;;
823;SDS011;373;49.342;8.146;2022-12-18T11:20:58;37.45;;;26.15;;
823;SDS011;373;49.342;8.146;2022-12-18T11:23:31;38.20;;;25.63;;
823;SDS011;373;49.342;8.146;2022-12-18T11:26:00;38.13;;;24.83;;
823;SDS011;373;49.342;8.146;2022-12-18T11:28:47;39.35;;;26.55;;
823;SDS011;373;49.342;8.146;2022-12-18T11:34:58;41.78;;;29.50;;
823;SDS011;373;49.342;8.146;2022-12-18T11:37:31;44.72;;;27.98;;
823;SDS011;373;49.342;8.146;2022-12-18T11:40:00;47.38;;;29.33;;
823;SDS011;373;49.342;8.146;2022-12-18T11:42:35;41.40;;;27.55;;
823;SDS011;373;49.342;8.146;2022-12-18T11:45:08;39.75;;;26.08;;
823;SDS011;373;49.342;8.146;2022-12-18T11:47:52;37.90;;;25.95;;
823;SDS011;373;49.342;8.146;2022-12-18T11:50:24;41.20;;;28.23;;
823;SDS011;373;49.342;8.146;2022-12-18T11:52:56;44.00;;;28.75;;
823;SDS011;373;49.342;8.146;2022-12-18T11:55:25;44.35;;;27.13;;
823;SDS011;373;49.342;8.146;2022-12-18T11:58:03;38.50;;;28.55;;
823;SDS011;373;49.342;8.146;2022-12-18T12:00:37;39.92;;;28.00;;
823;SDS011;373;49.342;8.146;2022-12-18T12:03:27;41.67;;;28.45;;
823;SDS011;373;49.342;8.146;2022-12-18T12:06:16;38.67;;;27.33;;
823;SDS011;373;49.342;8.146;2022-12-18T12:08:53;41.80;;;28.38;;
823;SDS011;373;49.342;8.146;2022-12-18T12:11:31;38.67;;;27.10;;
823;SDS011;373;49.342;8.146;2022-12-18T12:14:15;43.50;;;27.92;;
823;SDS011;373;49.342;8.146;2022-12-18T12:17:03;37.28;;;25.42;;
823;SDS011;373;49.342;8.146;2022-12-18T12:19:40;42.20;;;28.35;;
823;SDS011;373;49.342;8.146;2022-12-18T12:22:20;38.85;;;27.08;;
823;SDS011;373;49.342;8.146;2022-12-18T12:24:57;40.42;;;26.25;;
823;SDS011;373;49.342;8.146;2022-12-18T12:27:35;39.42;;;25.75;;
823;SDS011;373;49.342;8.146;2022-12-18T12:30:15;38.50;;;28.13;;
823;SDS011;373;49.342;8.146;2022-12-18T12:32:50;36.65;;;26.23;;
823;SDS011;373;49.342;8.146;2022-12-18T12:35:31;33.90;;;23.75;;
823;SDS011;373;49.342;8.146;2022-12-18T12:38:09;38.65;;;27.55;;
823;SDS011;373;49.342;8.146;2022-12-18T12:40:41;43.22;;;29.52;;
823;SDS011;373;49.342;8.146;2022-12-18T12:43:16;36.42;;;25.38;;
823;SDS011;373;49.342;8.146;2022-12-18T12:45:51;39.47;;;26.10;;
823;SDS011;373;49.342;8.146;2022-12-18T12:48:26;39.13;;;26.50;;
823;SDS011;373;49.342;8.146;2022-12-18T12:51:00;36.53;;;26.40;;
823;SDS011;373;49.342;8.146;2022-12-18T12:53:30;38.17;;;29.45;;
823;SDS011;373;49.342;8.146;2022-12-18T12:56:00;39.35;;;26.45;;
823;SDS011;373;49.342;8.146;2022-12-18T12:58:30;41.92;;;27.95;;
823;SDS011;373;49.342;8.146;2022-12-18T13:01:12;36.63;;;25.70;;
823;SDS011;373;49.342;8.146;2022-12-18T13:03:48;39.60;;;27.60;;
823;SDS011;373;49.342;8.146;2022-12-18T13:06:25;43.47;;;28.65;;
823;SDS011;373;49.342;8.146;2022-12-18T13:09:03;43.17;;;29.35;;
823;SDS011;373;49.342;8.146;2022-12-18T13:11:37;41.40;;;26.88;;
823;SDS011;373;49.342;8.146;2022-12-18T13:14:24;40.45;;;27.70;;
823;SDS011;373;49.342;8.146;2022-12-18T13:17:17;44.67;;;27.73;;
823;SDS011;373;49.342;8.146;2022-12-18T13:20:07;40.33;;;27.30;;
823;SDS011;373;49.342;8.146;2022-12-18T13:22:38;40.17;;;26.15;;
823;SDS011;373;49.342;8.146;2022-12-18T13:30:50;43.83;;;27.55;;
823;SDS011;373;49.342;8.146;2022-12-18T13:36:35;38.97;;;28.27;;
823;SDS011;373;49.342;8.146;2022-12-18T13:39:22;39.58;;;26.65;;
823;SDS011;373;49.342;8.146;2022-12-18T13:41:52;41.38;;;27.10;;
823;SDS011;373;49.342;8.146;2022-12-18T13:44:25;44.75;;;27.75;;
823;SDS011;373;49.342;8.146;2022-12-18T13:46:57;41.10;;;27.00;;
823;SDS011;373;49.342;8.146;2022-12-18T13:49:27;39.15;;;26.58;;
823;SDS011;373;49.342;8.146;2022-12-18T13:52:03;45.90;;;29.50;;
823;SDS011;373;49.342;8.146;2022-12-18T13:54:42;43.25;;;27.35;;
823;SDS011;373;49.342;8.146;2022-12-18T13:57:24;42.17;;;28.27;;
823;SDS011;373;49.342;8.146;2022-12-18T13:59:53;40.83;;;27.10;;
823;SDS011;373;49.342;8.146;2022-12-18T14:02:21;42.70;;;28.05;;
823;SDS011;373;49.342;8.146;2022-12-18T14:04:51;41.67;;;27.42;;
823;SDS011;373;49.342;8.146;2022-12-18T14:07:19;41.88;;;26.70;;
823;SDS011;373;49.342;8.146;2022-12-18T14:09:49;40.33;;;27.27;;
823;SDS011;373;49.342;8.146;2022-12-18T14:12:20;39.50;;;26.17;;
823;SDS011;373;49.342;8.146;2022-12-18T14:15:11;38.72;;;24.58;;
823;SDS011;373;49.342;8.146;2022-12-18T14:17:49;40.38;;;27.52;;
823;SDS011;373;49.342;8.146;2022-12-18T14:20:18;44.85;;;27.92;;
823;SDS011;373;49.342;8.146;2022-12-18T14:22:47;38.88;;;27.63;;
823;SDS011;373;49.342;8.146;2022-12-18T14:25:16;49.72;;;31.27;;
823;SDS011;373;49.342;8.146;2022-12-18T14:27:46;43.95;;;27.02;;
823;SDS011;373;49.342;8.146;2022-12-18T14:30:23;44.35;;;28.27;;
823;SDS011;373;49.342;8.146;2022-12-18T14:32:59;45.25;;;29.42;;
823;SDS011;373;49.342;8.146;2022-12-18T14:35:28;44.75;;;29.52;;
823;SDS011;373;49.342;8.146;2022-12-18T14:38:08;40.80;;;26.48;;
823;SDS011;373;49.342;8.146;2022-12-18T14:40:37;39.72;;;26.40;;
823;SDS011;373;49.342;8.146;2022-12-18T14:43:04;45.05;;;28.10;;
823;SDS011;373;49.342;8.146;2022-12-18T14:45:35;44.55;;;29.30;;
823;SDS011;373;49.342;8.146;2022-12-18T14:48:05;46.35;;;28.55;;
823;SDS011;373;49.342;8.146;2022-12-18T14:50:35;42.83;;;26.55;;
823;SDS011;373;49.342;8.146;2022-12-18T14:53:02;45.08;;;29.83;;
823;SDS011;373;49.342;8.146;2022-12-18T14:55:29;43.05;;;27.00;;
823;SDS011;373;49.342;8.146;2022-12-18T14:57:57;41.88;;;27.33;;
823;SDS011;373;49.342;8.146;2022-12-18T15:00:24;41.90;;;27.38;;
823;SDS011;373;49.342;8.146;2022-12-18T15:02:53;45.63;;;28.80;;
823;SDS011;373;49.342;8.146;2022-12-18T15:05:25;44.13;;;28.85;;
823;SDS011;373;49.342;8.146;2022-12-18T15:07:56;42.45;;;27.17;;
823;SDS011;373;49.342;8.146;2022-12-18T15:10:35;43.15;;;28.00;;
823;SDS011;373;49.342;8.146;2022-12-18T15:13:22;41.28;;;26.42;;
823;SDS011;373;49.342;8.146;2022-12-18T15:15:50;45.10;;;29.17;;
823;SDS011;373;49.342;8.146;2022-12-18T15:18:19;43.58;;;28.02;;
823;SDS011;373;49.342;8.146;2022-12-18T15:20:48;42.70;;;27.35;;
823;SDS011;373;49.342;8.146;2022-12-18T15:23:19;46.70;;;29.17;;
823;SDS011;373;49.342;8.146;2022-12-18T15:25:48;39.30;;;26.92;;
823;SDS011;373;49.342;8.146;2022-12-18T15:28:28;44.00;;;27.17;;
823;SDS011;373;49.342;8.146;2022-12-18T15:31:20;38.30;;;25.80;;
823;SDS011;373;49.342;8.146;2022-12-18T15:34:13;41.67;;;25.85;;
823;SDS011;373;49.342;8.146;2022-12-18T15:36:45;42.72;;;28.02;;
823;SDS011;373;49.342;8.146;2022-12-18T15:39:15;43.67;;;27.95;;
823;SDS011;373;49.342;8.146;2022-12-18T15:41:47;41.63;;;26.38;;
823;SDS011;373;49.342;8.146;2022-12-18T15:44:32;43.05;;;27.95;;
823;SDS011;373;49.342;8.146;2022-12-18T15:47:00;43.80;;;27.23;;
823;SDS011;373;49.342;8.146;2022-12-18T15:49:29;41.90;;;25.17;;
823;SDS011;373;49.342;8.146;2022-12-18T15:51:56;40.47;;;24.70;;
823;SDS011;373;49.342;8.146;2022-12-18T15:54:28;42.42;;;26.33;;
823;SDS011;373;49.342;8.146;2022-12-18T15:57:13;38.88;;;25.60;;
823;SDS011;373;49.342;8.146;2022-12-18T15:59:49;40.10;;;23.83;;
823;SDS011;373;49.342;8.146;2022-12-18T16:02:18;40.55;;;25.92;;
823;SDS011;373;49.342;8.146;2022-12-18T16:04:47;41.88;;;26.63;;
823;SDS011;373;49.342;8.146;2022-12-18T16:07:15;46.40;;;26.98;;
823;SDS011;373;49.342;8.146;2022-12-18T16:09:47;40.95;;;26.20;;
823;SDS011;373;49.342;8.146;2022-12-18T16:12:15;40.88;;;27.48;;
823;SDS011;373;49.342;8.146;2022-12-18T16:14:44;44.13;;;28.65;;
823;SDS011;373;49.342;8.146;2022-12-18T16:17:12;38.80;;;25.63;;
823;SDS011;373;49.342;8.146;2022-12-18T16:19:40;44.65;;;26.85;;
823;SDS011;373;49.342;8.146;2022-12-18T16:22:08;40.08;;;24.55;;
823;SDS011;373;49.342;8.146;2022-12-18T16:24:47;43.03;;;26.55;;